sensor_id;sensor_type;location;lat;lon;timestamp;pressure;altitude;pressure_sealevel;temperature;humidity
10093;BME280;5085;48.092;11.484;2022-10-16T00:01:25;95193.63;;;11.24;100.00
10093;BME280;5085;48.092;11.484;2022-10-16T00:03:51;95191.72;;;11.25;100.00
10093;BME280;5085;48.092;11.484;2022-10-16T00:06:19;95195.78;;;11.27;100.00
10093;BME280;5085;48.092;11.484;2022-10-16T00:08:46;95198.47;;;11.27;100.00
10093;BME280;5085;48.092;11.484;2022-10-16T00:11:18;95200.88;;;11.29;100.00
10093;BME280;5085;48.092;11.484;2022-10-16T00:13:46;95199.56;;;11.26;100.00
10093;BME280;5085;48.092;11.484;2022-10-16T00:16:13;95206.00;;;11.25;100.00
10093;BME280;5085;48.092;11.484;2022-10-16T00:18:40;95210.09;;;11.23;100.00
10093;BME280;5085;48.092;11.484;2022-10-16T00:21:12;95207.13;;;11.19;100.00
10093;BME280;5085;48.092;11.484;2022-10-16T00:23:39;95205.53;;;11.18;100.00
10093;BME280;5085;48.092;11.484;2022-10-16T00:26:08;95203.38;;;11.15;100.00
10093;BME280;5085;48.092;11.484;2022-10-16T00:28:35;95203.41;;;11.10;100.00
10093;BME280;5085;48.092;11.484;2022-10-16T00:31:06;95206.91;;;11.11;100.00
10093;BME280;5085;48.092;11.484;2022-10-16T00:33:33;95208.78;;;11.10;100.00
10093;BME280;5085;48.092;11.484;2022-10-16T00:36:01;95198.31;;;11.09;100.00
10093;BME280;5085;48.092;11.484;2022-10-16T00:38:27;95206.38;;;11.09;100.00
10093;BME280;5085;48.092;11.484;2022-10-16T00:40:53;95207.19;;;11.09;100.00
10093;BME280;5085;48.092;11.484;2022-10-16T00:43:36;95205.00;;;11.11;100.00
10093;BME280;5085;48.092;11.484;2022-10-16T00:46:05;95210.09;;;11.13;100.00
10093;BME280;5085;48.092;11.484;2022-10-16T00:48:33;95206.34;;;11.14;100.00
10093;BME280;5085;48.092;11.484;2022-10-16T00:50:59;95213.31;;;11.20;100.00
10093;BME280;5085;48.092;11.484;2022-10-16T00:53:26;95202.25;;;11.26;100.00
10093;BME280;5085;48.092;11.484;2022-10-16T00:55:53;95208.41;;;11.32;100.00
10093;BME280;5085;48.092;11.484;2022-10-16T00:58:20;95205.19;;;11.35;100.00
10093;BME280;5085;48.092;11.484;2022-10-16T01:00:46;95216.22;;;11.39;100.00
10093;BME280;5085;48.092;11.484;2022-10-16T01:03:31;95216.44;;;11.42;100.00
10093;BME280;5085;48.092;11.484;2022-10-16T01:08:51;95216.97;;;11.49;100.00
10093;BME280;5085;48.092;11.484;2022-10-16T01:11:31;95220.47;;;11.50;100.00
10093;BME280;5085;48.092;11.484;2022-10-16T01:14:03;95228.56;;;11.50;100.00
10093;BME280;5085;48.092;11.484;2022-10-16T01:16:40;95236.94;;;11.48;100.00
10093;BME280;5085;48.092;11.484;2022-10-16T01:19:18;95237.22;;;11.47;100.00
10093;BME280;5085;48.092;11.484;2022-10-16T01:21:47;95231.81;;;11.47;100.00
10093;BME280;5085;48.092;11.484;2022-10-16T01:24:21;95229.94;;;11.47;100.00
10093;BME280;5085;48.092;11.484;2022-10-16T01:29:50;95227.50;;;11.46;100.00
10093;BME280;5085;48.092;11.484;2022-10-16T01:32:28;95231.81;;;11.42;100.00
10093;BME280;5085;48.092;11.484;2022-10-16T01:35:03;95236.41;;;11.41;100.00
10093;BME280;5085;48.092;11.484;2022-10-16T01:37:41;95234.00;;;11.40;100.00
10093;BME280;5085;48.092;11.484;2022-10-16T01:40:12;95234.84;;;11.35;100.00
10093;BME280;5085;48.092;11.484;2022-10-16T01:42:47;95231.06;;;11.31;100.00
10093;BME280;5085;48.092;11.484;2022-10-16T01:45:17;95231.34;;;11.30;100.00
10093;BME280;5085;48.092;11.484;2022-10-16T01:47:46;95234.84;;;11.25;100.00
10093;BME280;5085;48.092;11.484;2022-10-16T01:50:14;95220.31;;;11.21;100.00
10093;BME280;5085;48.092;11.484;2022-10-16T01:52:44;95217.66;;;11.16;100.00
10093;BME280;5085;48.092;11.484;2022-10-16T01:55:17;95223.06;;;11.11;100.00
10093;BME280;5085;48.092;11.484;2022-10-16T01:57:46;95223.63;;;11.08;100.00
10093;BME280;5085;48.092;11.484;2022-10-16T02:00:17;95224.19;;;11.05;100.00
10093;BME280;5085;48.092;11.484;2022-10-16T02:02:46;95215.25;;;11.04;100.00
10093;BME280;5085;48.092;11.484;2022-10-16T02:05:20;95216.63;;;11.01;100.00
10093;BME280;5085;48.092;11.484;2022-10-16T02:07:48;95222.03;;;11.01;100.00
10093;BME280;5085;48.092;11.484;2022-10-16T02:10:15;95217.44;;;11.02;100.00
10093;BME280;5085;48.092;11.484;2022-10-16T02:12:47;95213.13;;;11.06;100.00
10093;BME280;5085;48.092;11.484;2022-10-16T02:15:13;95216.59;;;11.12;100.00
10093;BME280;5085;48.092;11.484;2022-10-16T02:17:39;95207.94;;;11.20;100.00
10093;BME280;5085;48.092;11.484;2022-10-16T02:20:06;95221.38;;;11.30;100.00
10093;BME280;5085;48.092;11.484;2022-10-16T02:22:35;95221.63;;;11.39;100.00
10093;BME280;5085;48.092;11.484;2022-10-16T02:25:08;95222.09;;;11.46;100.00
10093;BME280;5085;48.092;11.484;2022-10-16T02:27:55;95218.56;;;11.50;100.00
10093;BME280;5085;48.092;11.484;2022-10-16T02:30:28;95217.22;;;11.53;100.00
10093;BME280;5085;48.092;11.484;2022-10-16T02:32:56;95218.28;;;11.57;100.00
10093;BME280;5085;48.092;11.484;2022-10-16T02:35:24;95222.31;;;11.60;100.00
10093;BME280;5085;48.092;11.484;2022-10-16T02:37:52;95221.75;;;11.63;100.00
10093;BME280;5085;48.092;11.484;2022-10-16T02:40:18;95217.41;;;11.67;100.00
10093;BME280;5085;48.092;11.484;2022-10-16T02:42:50;95224.69;;;11.66;100.00
10093;BME280;5085;48.092;11.484;2022-10-16T02:45:16;95238.97;;;11.67;100.00
10093;BME280;5085;48.092;11.484;2022-10-16T02:47:42;95235.75;;;11.65;100.00
10093;BME280;5085;48.092;11.484;2022-10-16T02:50:08;95229.81;;;11.63;100.00
10093;BME280;5085;48.092;11.484;2022-10-16T02:52:34;95238.50;;;11.60;100.00
10093;BME280;5085;48.092;11.484;2022-10-16T02:55:00;95233.66;;;11.57;100.00
10093;BME280;5085;48.092;11.484;2022-10-16T02:57:26;95235.28;;;11.52;100.00
10093;BME280;5085;48.092;11.484;2022-10-16T02:59:53;95236.94;;;11.48;100.00
10093;BME280;5085;48.092;11.484;2022-10-16T03:02:19;95235.88;;;11.44;100.00
10093;BME280;5085;48.092;11.484;2022-10-16T03:04:45;95235.88;;;11.44;100.00
10093;BME280;5085;48.092;11.484;2022-10-16T03:07:11;95232.63;;;11.42;100.00
10093;BME280;5085;48.092;11.484;2022-10-16T03:09:37;95231.31;;;11.40;100.00
10093;BME280;5085;48.092;11.484;2022-10-16T03:12:03;95237.25;;;11.37;100.00
10093;BME280;5085;48.092;11.484;2022-10-16T03:14:29;95226.75;;;11.35;100.00
10093;BME280;5085;48.092;11.484;2022-10-16T03:16:55;95233.22;;;11.34;100.00
10093;BME280;5085;48.092;11.484;2022-10-16T03:19:21;95231.59;;;11.33;100.00
10093;BME280;5085;48.092;11.484;2022-10-16T03:21:47;95238.88;;;11.33;100.00
10093;BME280;5085;48.092;11.484;2022-10-16T03:24:13;95237.53;;;11.35;100.00
10093;BME280;5085;48.092;11.484;2022-10-16T03:26:39;95235.09;;;11.39;100.00
10093;BME280;5085;48.092;11.484;2022-10-16T03:29:05;95239.91;;;11.47;100.00
10093;BME280;5085;48.092;11.484;2022-10-16T03:31:32;95235.00;;;11.54;100.00
10093;BME280;5085;48.092;11.484;2022-10-16T03:33:58;95237.13;;;11.62;100.00
10093;BME280;5085;48.092;11.484;2022-10-16T03:36:24;95236.03;;;11.68;100.00
10093;BME280;5085;48.092;11.484;2022-10-16T03:38:50;95234.09;;;11.74;100.00
10093;BME280;5085;48.092;11.484;2022-10-16T03:41:16;95240.78;;;11.82;100.00
10093;BME280;5085;48.092;11.484;2022-10-16T03:43:42;95241.28;;;11.89;100.00
10093;BME280;5085;48.092;11.484;2022-10-16T03:46:08;95251.00;;;11.95;100.00
10093;BME280;5085;48.092;11.484;2022-10-16T03:48:34;95246.34;;;12.00;100.00
10093;BME280;5085;48.092;11.484;2022-10-16T03:51:00;95247.13;;;12.06;100.00
10093;BME280;5085;48.092;11.484;2022-10-16T03:53:26;95239.00;;;12.11;100.00
10093;BME280;5085;48.092;11.484;2022-10-16T03:55:52;95244.06;;;12.18;100.00
10093;BME280;5085;48.092;11.484;2022-10-16T03:58:18;95240.81;;;12.21;100.00
10093;BME280;5085;48.092;11.484;2022-10-16T04:00:46;95243.47;;;12.26;100.00
10093;BME280;5085;48.092;11.484;2022-10-16T04:03:13;95242.63;;;12.31;100.00
10093;BME280;5085;48.092;11.484;2022-10-16T04:05:39;95242.56;;;12.36;100.00
10093;BME280;5085;48.092;11.484;2022-10-16T04:08:05;95233.91;;;12.39;100.00
10093;BME280;5085;48.092;11.484;2022-10-16T04:10:32;95236.84;;;12.42;100.00
10093;BME280;5085;48.092;11.484;2022-10-16T04:12:58;95229.00;;;12.46;100.00
10093;BME280;5085;48.092;11.484;2022-10-16T04:15:24;95233.56;;;12.50;100.00
10093;BME280;5085;48.092;11.484;2022-10-16T04:17:51;95241.34;;;12.52;100.00
10093;BME280;5085;48.092;11.484;2022-10-16T04:20:18;95241.59;;;12.56;100.00
10093;BME280;5085;48.092;11.484;2022-10-16T04:22:44;95248.59;;;12.57;100.00
10093;BME280;5085;48.092;11.484;2022-10-16T04:25:11;95249.66;;;12.61;100.00
10093;BME280;5085;48.092;11.484;2022-10-16T04:27:38;95239.38;;;12.63;100.00
10093;BME280;5085;48.092;11.484;2022-10-16T04:30:04;95252.34;;;12.66;100.00
10093;BME280;5085;48.092;11.484;2022-10-16T04:32:30;95244.22;;;12.66;100.00
10093;BME280;5085;48.092;11.484;2022-10-16T04:34:56;95249.84;;;12.69;100.00
10093;BME280;5085;48.092;11.484;2022-10-16T04:37:26;95253.88;;;12.72;100.00
10093;BME280;5085;48.092;11.484;2022-10-16T04:39:53;95254.69;;;12.72;100.00
10093;BME280;5085;48.092;11.484;2022-10-16T04:42:20;95250.63;;;12.75;100.00
10093;BME280;5085;48.092;11.484;2022-10-16T04:44:46;95253.03;;;12.76;100.00
10093;BME280;5085;48.092;11.484;2022-10-16T04:47:13;95255.16;;;12.80;100.00
10093;BME280;5085;48.092;11.484;2022-10-16T04:49:39;95241.91;;;12.78;100.00
10093;BME280;5085;48.092;11.484;2022-10-16T04:52:05;95235.72;;;12.77;100.00
10093;BME280;5085;48.092;11.484;2022-10-16T04:54:31;95243.03;;;12.77;100.00
10093;BME280;5085;48.092;11.484;2022-10-16T04:56:57;95247.63;;;12.76;100.00
10093;BME280;5085;48.092;11.484;2022-10-16T04:59:24;95251.41;;;12.75;100.00
10093;BME280;5085;48.092;11.484;2022-10-16T05:01:50;95256.03;;;12.75;100.00
10093;BME280;5085;48.092;11.484;2022-10-16T05:04:16;95254.94;;;12.76;100.00
10093;BME280;5085;48.092;11.484;2022-10-16T05:06:42;95248.97;;;12.79;100.00
10093;BME280;5085;48.092;11.484;2022-10-16T05:09:09;95245.66;;;12.82;100.00
10093;BME280;5085;48.092;11.484;2022-10-16T05:11:35;95247.28;;;12.83;100.00
10093;BME280;5085;48.092;11.484;2022-10-16T05:14:01;95246.44;;;12.88;100.00
10093;BME280;5085;48.092;11.484;2022-10-16T05:16:27;95251.53;;;12.89;100.00
10093;BME280;5085;48.092;11.484;2022-10-16T05:18:53;95245.03;;;12.90;100.00
10093;BME280;5085;48.092;11.484;2022-10-16T05:21:20;95261.78;;;12.92;100.00
10093;BME280;5085;48.092;11.484;2022-10-16T05:23:46;95253.69;;;12.92;100.00
10093;BME280;5085;48.092;11.484;2022-10-16T05:26:12;95260.69;;;12.93;100.00
10093;BME280;5085;48.092;11.484;2022-10-16T05:28:38;95254.50;;;12.93;100.00
10093;BME280;5085;48.092;11.484;2022-10-16T05:31:08;95257.50;;;12.91;100.00
10093;BME280;5085;48.092;11.484;2022-10-16T05:33:35;95255.34;;;12.88;100.00
10093;BME280;5085;48.092;11.484;2022-10-16T05:36:05;95266.44;;;12.87;100.00
10093;BME280;5085;48.092;11.484;2022-10-16T05:38:34;95282.94;;;12.85;100.00
10093;BME280;5085;48.092;11.484;2022-10-16T05:41:00;95269.47;;;12.80;100.00
10093;BME280;5085;48.092;11.484;2022-10-16T05:43:27;95268.72;;;12.74;100.00
10093;BME280;5085;48.092;11.484;2022-10-16T05:45:57;95277.66;;;12.70;100.00
10093;BME280;5085;48.092;11.484;2022-10-16T05:48:24;95285.03;;;12.64;100.00
10093;BME280;5085;48.092;11.484;2022-10-16T05:51:01;95284.25;;;12.59;100.00
10093;BME280;5085;48.092;11.484;2022-10-16T05:53:29;95287.53;;;12.56;100.00
10093;BME280;5085;48.092;11.484;2022-10-16T05:55:56;95284.56;;;12.52;100.00
10093;BME280;5085;48.092;11.484;2022-10-16T05:58:22;95281.38;;;12.50;100.00
10093;BME280;5085;48.092;11.484;2022-10-16T06:00:56;95284.34;;;12.48;100.00
10093;BME280;5085;48.092;11.484;2022-10-16T06:03:22;95289.19;;;12.51;100.00
10093;BME280;5085;48.092;11.484;2022-10-16T06:05:48;95289.41;;;12.55;100.00
10093;BME280;5085;48.092;11.484;2022-10-16T06:08:14;95286.41;;;12.62;100.00
10093;BME280;5085;48.092;11.484;2022-10-16T06:10:41;95284.16;;;12.69;100.00
10093;BME280;5085;48.092;11.484;2022-10-16T06:13:07;95295.97;;;12.78;100.00
10093;BME280;5085;48.092;11.484;2022-10-16T06:15:33;95301.84;;;12.85;100.00
10093;BME280;5085;48.092;11.484;2022-10-16T06:17:59;95299.91;;;12.91;100.00
10093;BME280;5085;48.092;11.484;2022-10-16T06:20:26;95306.03;;;13.01;100.00
10093;BME280;5085;48.092;11.484;2022-10-16T06:22:52;95301.66;;;13.35;100.00
10093;BME280;5085;48.092;11.484;2022-10-16T06:25:18;95303.94;;;13.70;100.00
10093;BME280;5085;48.092;11.484;2022-10-16T06:27:44;95308.78;;;13.92;100.00
10093;BME280;5085;48.092;11.484;2022-10-16T06:30:10;95314.97;;;13.98;100.00
10093;BME280;5085;48.092;11.484;2022-10-16T06:32:36;95314.66;;;13.99;100.00
10093;BME280;5085;48.092;11.484;2022-10-16T06:35:02;95328.50;;;13.98;100.00
10093;BME280;5085;48.092;11.484;2022-10-16T06:37:28;95320.66;;;13.96;100.00
10093;BME280;5085;48.092;11.484;2022-10-16T06:39:54;95332.09;;;13.93;100.00
10093;BME280;5085;48.092;11.484;2022-10-16T06:42:20;95335.38;;;13.90;100.00
10093;BME280;5085;48.092;11.484;2022-10-16T06:44:46;95341.06;;;13.89;100.00
10093;BME280;5085;48.092;11.484;2022-10-16T06:47:12;95341.88;;;13.89;100.00
10093;BME280;5085;48.092;11.484;2022-10-16T06:49:38;95346.13;;;13.95;100.00
10093;BME280;5085;48.092;11.484;2022-10-16T06:52:04;95348.69;;;14.06;100.00
10093;BME280;5085;48.092;11.484;2022-10-16T06:54:30;95354.88;;;14.11;100.00
10093;BME280;5085;48.092;11.484;2022-10-16T06:56:56;95349.06;;;14.18;100.00
10093;BME280;5085;48.092;11.484;2022-10-16T06:59:22;95359.03;;;14.22;100.00
10093;BME280;5085;48.092;11.484;2022-10-16T07:01:48;95357.88;;;14.29;100.00
10093;BME280;5085;48.092;11.484;2022-10-16T07:04:14;95361.63;;;14.33;100.00
10093;BME280;5085;48.092;11.484;2022-10-16T07:06:40;95363.38;;;14.42;100.00
10093;BME280;5085;48.092;11.484;2022-10-16T07:09:09;95369.78;;;14.52;100.00
10093;BME280;5085;48.092;11.484;2022-10-16T07:11:37;95363.59;;;14.84;100.00
10093;BME280;5085;48.092;11.484;2022-10-16T07:14:03;95363.88;;;15.61;100.00
10093;BME280;5085;48.092;11.484;2022-10-16T07:16:31;95370.72;;;16.64;100.00
10093;BME280;5085;48.092;11.484;2022-10-16T07:19:00;95373.69;;;17.66;100.00
10093;BME280;5085;48.092;11.484;2022-10-16T07:21:29;95378.00;;;18.64;100.00
10093;BME280;5085;48.092;11.484;2022-10-16T07:23:57;95378.13;;;19.54;100.00
10093;BME280;5085;48.092;11.484;2022-10-16T07:26:24;95380.38;;;20.08;96.08
10093;BME280;5085;48.092;11.484;2022-10-16T07:28:51;95389.13;;;20.81;90.62
10093;BME280;5085;48.092;11.484;2022-10-16T07:31:19;95391.97;;;21.48;83.80
10093;BME280;5085;48.092;11.484;2022-10-16T07:33:46;95396.56;;;22.01;81.55
10093;BME280;5085;48.092;11.484;2022-10-16T07:36:14;95399.34;;;22.13;78.55
10093;BME280;5085;48.092;11.484;2022-10-16T07:38:41;95397.72;;;22.12;77.15
10093;BME280;5085;48.092;11.484;2022-10-16T07:41:11;95406.78;;;22.50;78.39
10093;BME280;5085;48.092;11.484;2022-10-16T07:43:37;95407.81;;;23.22;77.06
10093;BME280;5085;48.092;11.484;2022-10-16T07:46:04;95415.50;;;24.01;71.73
10093;BME280;5085;48.092;11.484;2022-10-16T07:48:31;95417.44;;;24.79;66.76
10093;BME280;5085;48.092;11.484;2022-10-16T07:51:02;95420.75;;;25.59;66.68
10093;BME280;5085;48.092;11.484;2022-10-16T07:53:28;95414.56;;;26.08;56.29
10093;BME280;5085;48.092;11.484;2022-10-16T07:55:59;95425.59;;;25.65;56.38
10093;BME280;5085;48.092;11.484;2022-10-16T07:58:26;95429.06;;;24.88;59.79
10093;BME280;5085;48.092;11.484;2022-10-16T08:00:52;95431.50;;;24.74;60.91
10093;BME280;5085;48.092;11.484;2022-10-16T08:03:18;95434.81;;;25.15;59.06
10093;BME280;5085;48.092;11.484;2022-10-16T08:05:44;95436.16;;;25.79;65.06
10093;BME280;5085;48.092;11.484;2022-10-16T08:08:14;95435.38;;;26.44;58.52
10093;BME280;5085;48.092;11.484;2022-10-16T08:10:40;95437.16;;;27.09;52.86
10093;BME280;5085;48.092;11.484;2022-10-16T08:13:07;95446.16;;;27.59;50.28
10093;BME280;5085;48.092;11.484;2022-10-16T08:15:33;95442.66;;;27.96;47.50
10093;BME280;5085;48.092;11.484;2022-10-16T08:18:01;95438.94;;;28.18;46.69
10093;BME280;5085;48.092;11.484;2022-10-16T08:20:29;95439.25;;;28.50;47.04
10093;BME280;5085;48.092;11.484;2022-10-16T08:22:55;95429.63;;;28.88;45.79
10093;BME280;5085;48.092;11.484;2022-10-16T08:25:22;95438.22;;;29.21;44.75
10093;BME280;5085;48.092;11.484;2022-10-16T08:27:49;95444.72;;;29.53;43.07
10093;BME280;5085;48.092;11.484;2022-10-16T08:30:17;95444.84;;;29.71;42.02
10093;BME280;5085;48.092;11.484;2022-10-16T08:32:43;95446.84;;;29.78;41.71
10093;BME280;5085;48.092;11.484;2022-10-16T08:35:11;95448.50;;;29.97;40.85
10093;BME280;5085;48.092;11.484;2022-10-16T08:37:38;95448.97;;;30.24;41.42
10093;BME280;5085;48.092;11.484;2022-10-16T08:40:06;95445.81;;;30.36;40.77
10093;BME280;5085;48.092;11.484;2022-10-16T08:45:07;95450.63;;;30.71;39.48
10093;BME280;5085;48.092;11.484;2022-10-16T08:47:56;95454.63;;;30.88;39.10
10093;BME280;5085;48.092;11.484;2022-10-16T08:50:30;95464.16;;;30.94;38.33
10093;BME280;5085;48.092;11.484;2022-10-16T08:52:57;95464.13;;;31.05;38.15
10093;BME280;5085;48.092;11.484;2022-10-16T08:55:40;95477.25;;;31.22;38.42
10093;BME280;5085;48.092;11.484;2022-10-16T08:58:16;95471.28;;;31.49;37.38
10093;BME280;5085;48.092;11.484;2022-10-16T09:00:50;95475.94;;;31.84;37.63
10093;BME280;5085;48.092;11.484;2022-10-16T09:03:47;95467.44;;;32.16;37.07
10093;BME280;5085;48.092;11.484;2022-10-16T09:09:03;95480.91;;;32.88;36.49
10093;BME280;5085;48.092;11.484;2022-10-16T09:17:22;95481.50;;;33.96;35.25
10093;BME280;5085;48.092;11.484;2022-10-16T09:19:55;95472.06;;;34.17;33.76
10093;BME280;5085;48.092;11.484;2022-10-16T09:22:27;95472.59;;;34.35;34.19
10093;BME280;5085;48.092;11.484;2022-10-16T09:24:59;95472.03;;;34.51;34.36
10093;BME280;5085;48.092;11.484;2022-10-16T09:27:27;95478.81;;;34.77;33.23
10093;BME280;5085;48.092;11.484;2022-10-16T09:29:53;95481.38;;;34.91;32.83
10093;BME280;5085;48.092;11.484;2022-10-16T09:32:20;95475.72;;;34.95;32.02
10093;BME280;5085;48.092;11.484;2022-10-16T09:34:52;95476.63;;;35.15;31.22
10093;BME280;5085;48.092;11.484;2022-10-16T09:37:21;95467.28;;;35.45;30.96
10093;BME280;5085;48.092;11.484;2022-10-16T09:39:50;95478.03;;;35.70;30.93
10093;BME280;5085;48.092;11.484;2022-10-16T09:42:36;95479.81;;;36.04;31.11
10093;BME280;5085;48.092;11.484;2022-10-16T09:45:03;95484.00;;;36.32;29.94
10093;BME280;5085;48.092;11.484;2022-10-16T09:47:30;95483.31;;;36.64;29.91
10093;BME280;5085;48.092;11.484;2022-10-16T09:50:20;95486.69;;;36.75;28.23
10093;BME280;5085;48.092;11.484;2022-10-16T09:52:47;95490.72;;;36.91;28.36
10093;BME280;5085;48.092;11.484;2022-10-16T09:55:16;95500.50;;;37.02;28.43
10093;BME280;5085;48.092;11.484;2022-10-16T09:57:50;95486.63;;;37.12;27.92
10093;BME280;5085;48.092;11.484;2022-10-16T10:00:17;95486.16;;;37.29;27.51
10093;BME280;5085;48.092;11.484;2022-10-16T10:02:44;95491.31;;;37.64;26.82
10093;BME280;5085;48.092;11.484;2022-10-16T10:05:27;95493.13;;;38.16;26.95
10093;BME280;5085;48.092;11.484;2022-10-16T10:08:03;95497.16;;;38.69;25.96
10093;BME280;5085;48.092;11.484;2022-10-16T10:10:41;95487.66;;;39.40;25.71
10093;BME280;5085;48.092;11.484;2022-10-16T10:13:20;95488.34;;;40.01;25.05
10093;BME280;5085;48.092;11.484;2022-10-16T10:15:47;95486.81;;;40.53;24.69
10093;BME280;5085;48.092;11.484;2022-10-16T10:18:21;95484.53;;;40.91;23.75
10093;BME280;5085;48.092;11.484;2022-10-16T10:21:02;95481.50;;;41.17;23.73
10093;BME280;5085;48.092;11.484;2022-10-16T10:23:30;95485.13;;;41.27;23.27
10093;BME280;5085;48.092;11.484;2022-10-16T10:34:43;95481.63;;;40.73;22.81
10093;BME280;5085;48.092;11.484;2022-10-16T10:37:26;95483.31;;;40.61;23.38
10093;BME280;5085;48.092;11.484;2022-10-16T10:45:47;95477.69;;;40.17;23.90
10093;BME280;5085;48.092;11.484;2022-10-16T10:51:23;95474.34;;;40.10;23.34
10093;BME280;5085;48.092;11.484;2022-10-16T10:56:26;95471.38;;;40.13;24.86
10093;BME280;5085;48.092;11.484;2022-10-16T10:59:15;95473.53;;;40.31;23.87
10093;BME280;5085;48.092;11.484;2022-10-16T11:02:19;95473.47;;;40.22;23.41
10093;BME280;5085;48.092;11.484;2022-10-16T11:05:06;95469.59;;;40.29;24.08
10093;BME280;5085;48.092;11.484;2022-10-16T11:07:40;95472.31;;;40.10;23.90
10093;BME280;5085;48.092;11.484;2022-10-16T11:10:24;95466.78;;;40.29;23.61
10093;BME280;5085;48.092;11.484;2022-10-16T11:12:59;95460.13;;;40.44;22.70
10093;BME280;5085;48.092;11.484;2022-10-16T11:15:36;95460.06;;;40.57;23.44
10093;BME280;5085;48.092;11.484;2022-10-16T11:18:06;95466.06;;;40.68;23.24
10093;BME280;5085;48.092;11.484;2022-10-16T11:20:38;95460.72;;;41.02;22.37
10093;BME280;5085;48.092;11.484;2022-10-16T11:23:12;95468.44;;;41.19;22.81
10093;BME280;5085;48.092;11.484;2022-10-16T11:25:42;95465.81;;;41.25;21.70
10093;BME280;5085;48.092;11.484;2022-10-16T11:28:21;95473.53;;;41.34;22.64
10093;BME280;5085;48.092;11.484;2022-10-16T11:31:14;95472.81;;;41.11;21.62
10093;BME280;5085;48.092;11.484;2022-10-16T11:36:46;95460.19;;;40.94;22.27
10093;BME280;5085;48.092;11.484;2022-10-16T11:39:22;95459.94;;;41.10;22.85
10093;BME280;5085;48.092;11.484;2022-10-16T11:41:55;95454.94;;;41.24;21.38
10093;BME280;5085;48.092;11.484;2022-10-16T11:47:17;95454.31;;;41.29;21.82
10093;BME280;5085;48.092;11.484;2022-10-16T11:49:46;95458.69;;;41.20;21.64
10093;BME280;5085;48.092;11.484;2022-10-16T11:52:20;95455.16;;;41.38;21.32
10093;BME280;5085;48.092;11.484;2022-10-16T11:54:52;95444.25;;;41.18;19.42
10093;BME280;5085;48.092;11.484;2022-10-16T11:57:24;95446.94;;;41.22;20.65
10093;BME280;5085;48.092;11.484;2022-10-16T11:59:56;95444.50;;;41.42;20.57
10093;BME280;5085;48.092;11.484;2022-10-16T12:08:13;95455.19;;;41.93;19.92
10093;BME280;5085;48.092;11.484;2022-10-16T12:10:43;95445.25;;;41.80;18.77
10093;BME280;5085;48.092;11.484;2022-10-16T12:13:29;95455.50;;;42.23;19.19
10093;BME280;5085;48.092;11.484;2022-10-16T12:18:38;95450.34;;;42.55;20.41
10093;BME280;5085;48.092;11.484;2022-10-16T12:21:05;95453.44;;;42.14;21.14
10093;BME280;5085;48.092;11.484;2022-10-16T12:23:50;95447.31;;;41.70;20.54
10093;BME280;5085;48.092;11.484;2022-10-16T12:26:28;95444.97;;;41.68;19.80
10093;BME280;5085;48.092;11.484;2022-10-16T12:28:55;95446.53;;;41.60;20.45
10093;BME280;5085;48.092;11.484;2022-10-16T12:31:22;95443.97;;;41.35;21.59
10093;BME280;5085;48.092;11.484;2022-10-16T12:36:56;95427.59;;;41.11;21.51
10093;BME280;5085;48.092;11.484;2022-10-16T12:39:33;95436.72;;;41.25;21.32
10093;BME280;5085;48.092;11.484;2022-10-16T12:44:46;95431.56;;;41.41;20.68
10093;BME280;5085;48.092;11.484;2022-10-16T12:49:57;95429.81;;;41.26;21.13
10093;BME280;5085;48.092;11.484;2022-10-16T12:52:27;95429.88;;;40.94;22.68
10093;BME280;5085;48.092;11.484;2022-10-16T12:54:57;95425.53;;;40.53;22.71
10093;BME280;5085;48.092;11.484;2022-10-16T12:58:00;95419.97;;;39.96;22.53
10093;BME280;5085;48.092;11.484;2022-10-16T13:01:03;95412.00;;;39.38;24.38
10093;BME280;5085;48.092;11.484;2022-10-16T13:09:40;95406.59;;;38.84;22.71
10093;BME280;5085;48.092;11.484;2022-10-16T13:12:18;95406.38;;;39.38;21.09
10093;BME280;5085;48.092;11.484;2022-10-16T13:15:26;95408.59;;;39.65;22.77
10093;BME280;5085;48.092;11.484;2022-10-16T13:20:59;95414.00;;;39.94;21.27
10093;BME280;5085;48.092;11.484;2022-10-16T13:23:43;95422.41;;;40.07;21.05
10093;BME280;5085;48.092;11.484;2022-10-16T13:29:04;95426.69;;;39.90;22.19
10093;BME280;5085;48.092;11.484;2022-10-16T13:31:31;95424.44;;;39.85;22.41
10093;BME280;5085;48.092;11.484;2022-10-16T13:33:59;95418.41;;;39.73;22.51
10093;BME280;5085;48.092;11.484;2022-10-16T13:36:45;95417.75;;;39.69;23.95
10093;BME280;5085;48.092;11.484;2022-10-16T13:39:15;95420.41;;;39.51;22.11
10093;BME280;5085;48.092;11.484;2022-10-16T13:41:44;95416.47;;;39.48;22.20
10093;BME280;5085;48.092;11.484;2022-10-16T13:44:19;95415.84;;;39.32;23.43
10093;BME280;5085;48.092;11.484;2022-10-16T13:46:46;95415.38;;;38.86;24.10
10093;BME280;5085;48.092;11.484;2022-10-16T13:49:14;95414.94;;;38.36;23.99
10093;BME280;5085;48.092;11.484;2022-10-16T13:51:40;95410.38;;;38.13;24.69
10093;BME280;5085;48.092;11.484;2022-10-16T13:54:09;95424.91;;;37.83;24.81
10093;BME280;5085;48.092;11.484;2022-10-16T13:56:38;95421.59;;;37.42;25.50
10093;BME280;5085;48.092;11.484;2022-10-16T13:59:07;95418.66;;;36.84;26.52
10093;BME280;5085;48.092;11.484;2022-10-16T14:01:47;95425.06;;;35.76;26.85
10093;BME280;5085;48.092;11.484;2022-10-16T14:04:14;95416.91;;;34.48;28.63
10093;BME280;5085;48.092;11.484;2022-10-16T14:06:43;95428.88;;;33.15;31.05
10093;BME280;5085;48.092;11.484;2022-10-16T14:09:28;95416.56;;;31.98;31.50
10093;BME280;5085;48.092;11.484;2022-10-16T14:11:58;95419.66;;;30.91;33.57
10093;BME280;5085;48.092;11.484;2022-10-16T14:14:27;95411.97;;;29.95;34.22
10093;BME280;5085;48.092;11.484;2022-10-16T14:16:56;95414.81;;;29.14;37.09
10093;BME280;5085;48.092;11.484;2022-10-16T14:19:25;95425.03;;;28.52;38.27
10093;BME280;5085;48.092;11.484;2022-10-16T14:21:52;95421.25;;;27.93;39.80